createdAt,value
2022-10-14T00:02:24.199Z,8.40
2022-10-14T00:06:30.859Z,8.40
2022-10-14T00:10:39.475Z,8.40
2022-10-14T00:14:42.693Z,8.40
2022-10-14T00:18:49.246Z,8.50
2022-10-14T00:22:52.526Z,8.50
2022-10-14T00:27:01.338Z,8.50
2022-10-14T00:31:05.149Z,8.50
2022-10-14T00:35:07.714Z,8.50
2022-10-14T00:39:12.968Z,8.50
2022-10-14T00:43:16.358Z,8.50
2022-10-14T00:47:19.704Z,8.50
2022-10-14T00:51:24.929Z,8.40
2022-10-14T00:59:52.063Z,8.40
2022-10-14T01:03:56.069Z,8.40
2022-10-14T01:08:10.590Z,8.50
2022-10-14T01:13:19.774Z,8.60
2022-10-14T01:17:31.293Z,8.60
2022-10-14T01:21:44.485Z,8.70
2022-10-14T01:26:15.335Z,8.70
2022-10-14T01:30:19.634Z,8.70
2022-10-14T01:34:35.587Z,8.70
2022-10-14T01:38:44.467Z,8.80
2022-10-14T01:42:49.709Z,8.90
2022-10-14T01:46:55.023Z,9.00
2022-10-14T01:51:02.030Z,9.00
2022-10-14T01:55:11.267Z,9.10
2022-10-14T01:59:16.733Z,9.10
2022-10-14T02:03:20.097Z,9.20
2022-10-14T02:07:28.147Z,9.20
2022-10-14T02:12:18.770Z,9.30
2022-10-14T02:16:53.327Z,9.30
2022-10-14T02:21:08.609Z,9.40
2022-10-14T02:25:26.604Z,9.40
2022-10-14T02:29:32.206Z,9.40
2022-10-14T02:33:42.884Z,9.40
2022-10-14T02:37:52.527Z,9.40
2022-10-14T02:41:55.617Z,9.40
2022-10-14T02:46:02.118Z,9.30
2022-10-14T02:50:05.454Z,9.30
2022-10-14T02:54:09.312Z,9.30
2022-10-14T02:58:14.825Z,9.40
2022-10-14T03:02:21.544Z,9.40
2022-10-14T03:06:26.534Z,9.40
2022-10-14T03:10:39.204Z,9.40
2022-10-14T03:14:44.545Z,9.40
2022-10-14T03:18:54.504Z,9.40
2022-10-14T03:23:18.292Z,9.40
2022-10-14T03:27:28.099Z,9.40
2022-10-14T03:31:38.256Z,9.40
2022-10-14T03:36:02.135Z,9.40
2022-10-14T03:40:17.571Z,9.40
2022-10-14T03:44:21.711Z,9.50
2022-10-14T03:48:49.574Z,9.50
2022-10-14T03:52:55.941Z,9.50
2022-10-14T03:57:06.462Z,9.50
2022-10-14T04:01:19.294Z,9.50
2022-10-14T04:05:46.131Z,9.50
2022-10-14T04:09:58.317Z,9.50
2022-10-14T04:14:12.627Z,9.50
2022-10-14T04:18:25.585Z,9.60
2022-10-14T04:22:32.527Z,9.50
2022-10-14T04:26:36.077Z,9.50
2022-10-14T04:30:39.567Z,9.50
2022-10-14T04:34:49.182Z,9.50
2022-10-14T04:43:16.572Z,9.40
2022-10-14T04:47:20.311Z,9.40
2022-10-14T04:51:31.361Z,9.40
2022-10-14T04:55:51.232Z,9.40
2022-10-14T05:00:03.588Z,9.40
2022-10-14T05:04:31.966Z,9.40
2022-10-14T05:08:36.446Z,9.40
2022-10-14T05:12:44.360Z,9.30
2022-10-14T05:21:14.572Z,9.30
2022-10-14T05:25:39.799Z,9.30
2022-10-14T05:29:44.236Z,9.30
2022-10-14T05:33:50.323Z,9.30
2022-10-14T05:38:04.366Z,9.30
2022-10-14T05:42:41.174Z,9.40
2022-10-14T05:46:45.651Z,9.40
2022-10-14T05:50:51.094Z,9.50
2022-10-14T05:54:59.328Z,9.50
2022-10-14T05:59:04.469Z,9.50
2022-10-14T06:03:07.794Z,9.60
2022-10-14T06:07:12.789Z,9.60
2022-10-14T06:11:17.546Z,9.70
2022-10-14T06:15:23.970Z,9.70
2022-10-14T06:19:31.832Z,9.70
2022-10-14T06:23:35.630Z,9.80
2022-10-14T06:27:40.362Z,9.80
2022-10-14T06:31:44.679Z,9.90
2022-10-14T06:35:48.935Z,9.90
2022-10-14T06:39:54.919Z,10.00
2022-10-14T06:43:57.633Z,10.10
2022-10-14T06:48:06.532Z,10.10
2022-10-14T06:52:10.831Z,10.20
2022-10-14T06:56:20.153Z,10.30
2022-10-14T07:00:25.617Z,10.40
2022-10-14T07:04:31.243Z,10.50
2022-10-14T07:08:35.094Z,10.60
2022-10-14T07:17:07.591Z,10.90
2022-10-14T07:21:20.604Z,11.10
2022-10-14T07:25:27.515Z,11.30
2022-10-14T07:29:31.339Z,11.50
2022-10-14T07:37:51.973Z,11.80
2022-10-14T07:42:00.344Z,11.80
2022-10-14T07:46:08.790Z,11.90
2022-10-14T07:50:13.652Z,11.90
2022-10-14T07:54:25.274Z,11.90
2022-10-14T07:58:31.611Z,12.10
2022-10-14T08:02:36.645Z,12.40
2022-10-14T08:06:50.341Z,12.60
2022-10-14T08:11:06.451Z,12.80
2022-10-14T08:15:14.999Z,13.20
2022-10-14T08:19:17.785Z,13.50
2022-10-14T08:23:22.037Z,13.80
2022-10-14T08:27:27.548Z,14.10
2022-10-14T08:31:30.750Z,14.00
2022-10-14T08:35:33.244Z,14.20
2022-10-14T08:39:35.663Z,14.50
2022-10-14T08:43:43.287Z,14.60
2022-10-14T08:47:49.029Z,14.40
2022-10-14T08:51:59.338Z,14.30
2022-10-14T08:56:03.217Z,14.10
2022-10-14T09:00:33.873Z,14.10
2022-10-14T09:08:56.305Z,13.80
2022-10-14T09:13:28.417Z,13.90
2022-10-14T09:17:54.571Z,14.00
2022-10-14T09:22:00.718Z,14.10
2022-10-14T09:26:13.469Z,14.20
2022-10-14T09:30:18.950Z,14.30
2022-10-14T09:34:37.037Z,14.30
2022-10-14T09:38:43.241Z,14.40
2022-10-14T09:43:12.450Z,14.50
2022-10-14T09:47:19.502Z,14.60
2022-10-14T09:51:31.126Z,14.70
2022-10-14T09:55:36.389Z,14.80
2022-10-14T09:59:52.080Z,14.90
2022-10-14T10:03:58.820Z,15.00
2022-10-14T10:08:10.030Z,15.20
2022-10-14T10:12:32.047Z,15.40
2022-10-14T10:16:38.195Z,15.60
2022-10-14T10:20:40.336Z,15.90
2022-10-14T10:24:45.304Z,16.00
2022-10-14T10:28:50.727Z,15.80
2022-10-14T10:33:21.305Z,15.70
2022-10-14T10:37:33.655Z,15.70
2022-10-14T10:42:02.857Z,15.60
2022-10-14T10:46:28.856Z,15.50
2022-10-14T10:51:00.942Z,15.60
2022-10-14T10:55:15.534Z,15.40
2022-10-14T10:59:37.254Z,15.30
2022-10-14T11:04:07.353Z,15.20
2022-10-14T11:08:28.426Z,15.20
2022-10-14T11:12:39.935Z,15.20
2022-10-14T11:16:56.343Z,15.40
2022-10-14T11:21:31.526Z,15.60
2022-10-14T11:25:58.420Z,15.90
2022-10-14T11:30:38.903Z,16.20
2022-10-14T11:34:55.596Z,16.20
2022-10-14T11:39:14.914Z,16.10
2022-10-14T11:43:43.976Z,16.30
2022-10-14T11:47:51.321Z,16.20
2022-10-14T11:51:57.619Z,16.10
2022-10-14T11:56:31.142Z,15.90
2022-10-14T12:00:54.910Z,15.90
2022-10-14T12:05:22.462Z,15.90
2022-10-14T12:09:39.864Z,16.00
2022-10-14T12:13:48.025Z,16.00
2022-10-14T12:18:13.364Z,16.10
2022-10-14T12:22:20.098Z,16.10
2022-10-14T12:26:31.666Z,16.10
2022-10-14T12:30:40.903Z,16.10
2022-10-14T12:34:44.431Z,16.10
2022-10-14T12:39:18.189Z,16.20
2022-10-14T12:43:25.517Z,16.30
2022-10-14T12:47:32.525Z,16.40
2022-10-14T12:51:36.341Z,16.30
2022-10-14T12:55:50.368Z,16.30
2022-10-14T12:59:55.123Z,16.30
2022-10-14T13:04:04.273Z,16.40
2022-10-14T13:08:24.558Z,16.40
2022-10-14T13:12:26.549Z,16.40
2022-10-14T13:16:31.562Z,16.40
2022-10-14T13:20:35.764Z,16.40
2022-10-14T13:24:44.327Z,16.40
2022-10-14T13:29:21.449Z,16.40
2022-10-14T13:33:32.887Z,16.40
2022-10-14T13:37:45.781Z,16.30
2022-10-14T13:41:51.126Z,16.30
2022-10-14T13:45:57.794Z,16.30
2022-10-14T13:50:01.942Z,16.20
2022-10-14T13:54:20.800Z,16.10
2022-10-14T13:58:24.399Z,16.00
2022-10-14T14:02:31.346Z,16.00
2022-10-14T14:06:45.309Z,15.90
2022-10-14T14:11:18.941Z,15.70
2022-10-14T14:15:26.884Z,15.60
2022-10-14T14:19:31.126Z,15.50
2022-10-14T14:23:33.319Z,15.40
2022-10-14T14:27:37.227Z,15.50
2022-10-14T14:32:01.832Z,15.60
2022-10-14T14:36:05.318Z,15.80
2022-10-14T14:40:21.004Z,16.10
2022-10-14T14:44:29.951Z,16.40
2022-10-14T14:48:34.188Z,16.60
2022-10-14T14:52:38.983Z,16.70
2022-10-14T14:56:49.773Z,16.60
2022-10-14T15:00:54.933Z,16.70
2022-10-14T15:05:09.958Z,16.60
2022-10-14T15:09:15.173Z,16.60
2022-10-14T15:13:52.949Z,16.50
2022-10-14T15:18:16.702Z,16.40
2022-10-14T15:22:25.350Z,16.10
2022-10-14T15:26:37.134Z,15.90
2022-10-14T15:30:53.522Z,15.70
2022-10-14T15:35:00.397Z,15.40
2022-10-14T15:39:02.859Z,15.20
2022-10-14T15:43:13.934Z,14.90
2022-10-14T15:47:22.351Z,14.60
2022-10-14T15:51:30.992Z,14.40
2022-10-14T15:55:36.960Z,14.20
2022-10-14T15:59:40.414Z,14.00
2022-10-14T16:03:43.333Z,13.80
2022-10-14T16:07:46.598Z,13.60
2022-10-14T16:11:49.890Z,13.50
2022-10-14T16:15:58.958Z,13.30
2022-10-14T16:20:01.835Z,13.20
2022-10-14T16:24:05.222Z,13.00
2022-10-14T16:28:10.144Z,12.90
2022-10-14T16:32:13.373Z,12.70
2022-10-14T16:36:17.662Z,12.60
2022-10-14T16:40:19.836Z,12.50
2022-10-14T16:44:25.619Z,12.30
2022-10-14T16:48:28.329Z,12.20
2022-10-14T16:52:53.026Z,12.10
2022-10-14T16:56:55.721Z,12.00
2022-10-14T17:00:59.238Z,11.90
2022-10-14T17:05:03.534Z,11.80
2022-10-14T17:09:08.377Z,11.70
2022-10-14T17:13:10.761Z,11.60
2022-10-14T17:17:14.983Z,11.50
2022-10-14T17:21:17.320Z,11.40
2022-10-14T17:25:21.001Z,11.30
2022-10-14T17:29:23.547Z,11.30
2022-10-14T17:33:26.806Z,11.20
2022-10-14T17:37:31.253Z,11.10
2022-10-14T17:41:35.866Z,11.10
2022-10-14T17:45:40.242Z,11.00
2022-10-14T17:49:42.592Z,11.00
2022-10-14T17:53:46.161Z,10.90
2022-10-14T17:57:48.745Z,10.80
2022-10-14T18:02:07.553Z,10.80
2022-10-14T18:06:19.514Z,10.70
2022-10-14T18:10:24.695Z,10.70
2022-10-14T18:14:29.170Z,10.60
2022-10-14T18:18:34.284Z,10.60
2022-10-14T18:22:39.953Z,10.50
2022-10-14T18:26:43.617Z,10.40
2022-10-14T18:30:46.184Z,10.40
2022-10-14T18:34:50.347Z,10.30
2022-10-14T18:39:00.685Z,10.30
2022-10-14T18:43:06.916Z,10.30
2022-10-14T18:47:12.010Z,10.30
2022-10-14T18:51:19.812Z,10.30
2022-10-14T18:55:28.005Z,10.30
2022-10-14T18:59:32.223Z,10.30
2022-10-14T19:03:35.838Z,10.30
2022-10-14T19:07:39.334Z,10.30
2022-10-14T19:11:45.290Z,10.30
2022-10-14T19:15:54.045Z,10.30
2022-10-14T19:20:01.735Z,10.30
2022-10-14T19:24:10.646Z,10.30
2022-10-14T19:28:14.278Z,10.30
2022-10-14T19:32:17.795Z,10.30
2022-10-14T19:36:33.912Z,10.30
2022-10-14T19:40:37.756Z,10.30
2022-10-14T19:44:41.162Z,10.30
2022-10-14T19:48:43.709Z,10.30
2022-10-14T19:52:48.242Z,10.30
2022-10-14T19:56:52.245Z,10.30
2022-10-14T20:00:57.136Z,10.20
2022-10-14T20:05:04.907Z,10.20
2022-10-14T20:09:11.372Z,10.10
2022-10-14T20:13:14.437Z,10.10
2022-10-14T20:21:24.168Z,9.90
2022-10-14T20:25:29.299Z,9.90
2022-10-14T20:29:37.730Z,9.90
2022-10-14T20:33:41.561Z,9.80
2022-10-14T20:37:45.844Z,9.80
2022-10-14T20:41:58.901Z,9.70
2022-10-14T20:46:06.327Z,9.70
2022-10-14T20:50:15.142Z,9.70
2022-10-14T20:54:22.467Z,9.60
2022-10-14T20:58:29.815Z,9.60
2022-10-14T21:02:34.282Z,9.50
2022-10-14T21:06:45.645Z,9.50
2022-10-14T21:10:51.042Z,9.40
2022-10-14T21:14:53.505Z,9.40
2022-10-14T21:19:04.235Z,9.40
2022-10-14T21:23:11.335Z,9.40
2022-10-14T21:27:22.358Z,9.30
2022-10-14T21:31:27.005Z,9.30
2022-10-14T21:35:32.340Z,9.20
2022-10-14T21:39:36.232Z,9.20
2022-10-14T21:43:42.759Z,9.20
2022-10-14T21:47:50.233Z,9.10
2022-10-14T21:51:55.491Z,9.10
2022-10-14T21:56:00.944Z,9.00
2022-10-14T22:00:12.207Z,9.00
2022-10-14T22:04:15.663Z,8.90
2022-10-14T22:08:23.286Z,8.90
2022-10-14T22:12:30.139Z,8.90
2022-10-14T22:16:35.968Z,8.90
2022-10-14T22:20:39.321Z,8.90
2022-10-14T22:24:45.769Z,8.90
2022-10-14T22:28:59.166Z,8.90
2022-10-14T22:33:02.416Z,8.80
2022-10-14T22:37:09.361Z,8.90
2022-10-14T22:41:13.470Z,8.90
2022-10-14T22:45:19.081Z,8.90
2022-10-14T22:49:24.289Z,8.90
2022-10-14T22:53:30.138Z,9.00
2022-10-14T22:57:35.955Z,9.10
2022-10-14T23:01:42.539Z,9.20
2022-10-14T23:06:07.383Z,9.30
2022-10-14T23:10:11.873Z,9.40
2022-10-14T23:14:15.016Z,9.40
2022-10-14T23:18:20.543Z,9.50
2022-10-14T23:22:23.072Z,9.50
2022-10-14T23:26:33.697Z,9.50
2022-10-14T23:30:36.450Z,9.60
2022-10-14T23:34:40.356Z,9.70
2022-10-14T23:38:44.185Z,9.80
2022-10-14T23:42:52.853Z,10.00
2022-10-14T23:46:58.401Z,10.10
2022-10-14T23:51:03.721Z,10.20
2022-10-14T23:55:07.443Z,10.30
2022-10-14T23:59:10.864Z,10.30
